createdAt,value
2019-04-16T00:00:18.213Z,55.98
2019-04-16T00:01:18.189Z,56.00
2019-04-16T00:02:18.741Z,55.87
2019-04-16T00:03:20.332Z,55.77
2019-04-16T00:04:18.171Z,55.59
2019-04-16T00:05:18.134Z,55.46
2019-04-16T00:06:18.136Z,55.46
2019-04-16T00:07:18.117Z,55.59
2019-04-16T00:08:27.710Z,55.66
2019-04-16T00:09:18.124Z,55.57
2019-04-16T00:10:18.088Z,55.57
2019-04-16T00:11:18.079Z,55.46
2019-04-16T00:12:18.058Z,55.46
2019-04-16T00:13:18.115Z,55.26
2019-04-16T00:14:18.067Z,55.66
2019-04-16T00:15:18.039Z,55.59
2019-04-16T00:16:18.018Z,55.59
2019-04-16T00:17:18.011Z,55.79
2019-04-16T00:18:18.755Z,55.77
2019-04-16T00:19:18.007Z,55.59
2019-04-16T00:20:17.980Z,55.59
2019-04-16T00:21:17.970Z,55.59
2019-04-16T00:22:17.955Z,55.79
2019-04-16T00:23:17.938Z,55.59
2019-04-16T00:24:19.214Z,55.59
2019-04-16T00:25:17.916Z,55.69
2019-04-16T00:26:17.911Z,55.59
2019-04-16T00:27:17.901Z,55.49
2019-04-16T00:28:17.895Z,55.69
2019-04-16T00:29:17.887Z,56.31
2019-04-16T00:30:17.859Z,55.59
2019-04-16T00:31:17.860Z,55.69
2019-04-16T00:32:17.848Z,55.49
2019-04-16T00:33:17.841Z,55.62
2019-04-16T00:34:17.848Z,55.28
2019-04-16T00:35:17.807Z,55.59
2019-04-16T00:36:18.752Z,55.38
2019-04-16T00:37:20.265Z,55.82
2019-04-16T00:38:22.456Z,55.49
2019-04-16T00:39:17.789Z,55.38
2019-04-16T00:40:17.761Z,55.08
2019-04-16T00:41:17.779Z,55.08
2019-04-16T00:42:18.579Z,54.97
2019-04-16T00:43:17.730Z,55.38
2019-04-16T00:44:17.739Z,55.21
2019-04-16T00:45:17.704Z,55.41
2019-04-16T00:46:17.701Z,55.28
2019-04-16T00:47:17.690Z,55.51
2019-04-16T00:48:17.668Z,55.18
2019-04-16T00:49:17.663Z,55.21
2019-04-16T00:50:17.655Z,55.41
2019-04-16T00:51:17.647Z,55.38
2019-04-16T00:52:17.634Z,55.21
2019-04-16T00:53:17.617Z,55.00
2019-04-16T00:54:17.602Z,55.72
2019-04-16T00:55:17.601Z,55.93
2019-04-16T00:56:17.574Z,55.72
2019-04-16T00:57:18.179Z,55.51
2019-04-16T00:58:19.825Z,55.95
2019-04-16T00:59:17.539Z,56.05
2019-04-16T01:00:17.546Z,56.36
2019-04-16T01:01:17.520Z,55.85
2019-04-16T01:02:17.515Z,56.05
2019-04-16T01:04:26.728Z,56.15
2019-04-16T01:05:27.686Z,55.95
2019-04-16T01:06:27.670Z,56.26
2019-04-16T01:07:27.650Z,56.46
2019-04-16T01:08:27.644Z,56.26
2019-04-16T01:09:27.647Z,56.26
2019-04-16T01:10:27.628Z,56.36
2019-04-16T01:11:27.617Z,56.80
2019-04-16T01:12:27.612Z,56.70
2019-04-16T01:13:28.447Z,56.98
2019-04-16T01:14:27.599Z,56.67
2019-04-16T01:15:29.203Z,56.90
2019-04-16T01:16:27.564Z,56.80
2019-04-16T01:17:27.552Z,57.21
2019-04-16T01:18:27.544Z,57.42
2019-04-16T01:19:27.523Z,56.90
2019-04-16T01:20:27.546Z,57.10
2019-04-16T01:21:27.513Z,57.52
2019-04-16T01:22:27.498Z,57.01
2019-04-16T01:23:27.494Z,57.21
2019-04-16T01:24:27.486Z,57.21
2019-04-16T01:25:27.491Z,56.90
2019-04-16T01:26:27.626Z,57.39
2019-04-16T01:27:28.789Z,56.80
2019-04-16T01:28:29.359Z,56.70
2019-04-16T01:29:27.428Z,57.42
2019-04-16T01:30:27.456Z,57.42
2019-04-16T01:31:27.404Z,56.80
2019-04-16T01:32:27.406Z,57.10
2019-04-16T01:33:27.375Z,57.10
2019-04-16T01:34:27.369Z,57.21
2019-04-16T01:35:27.363Z,57.62
2019-04-16T01:36:27.336Z,57.01
2019-04-16T01:37:27.338Z,57.01
2019-04-16T01:38:28.039Z,57.01
2019-04-16T01:39:27.320Z,57.01
2019-04-16T01:40:27.328Z,57.42
2019-04-16T01:41:27.286Z,57.65
2019-04-16T01:42:27.270Z,57.21
2019-04-16T01:43:27.271Z,57.10
2019-04-16T01:44:29.421Z,57.01
2019-04-16T01:45:29.722Z,57.01
2019-04-16T01:46:27.232Z,57.01
2019-04-16T01:47:27.214Z,56.90
2019-04-16T01:48:27.214Z,57.01
2019-04-16T01:49:27.195Z,57.10
2019-04-16T01:50:27.203Z,56.90
2019-04-16T01:51:27.186Z,56.80
2019-04-16T01:52:27.167Z,57.01
2019-04-16T01:53:27.164Z,56.80
2019-04-16T01:54:27.146Z,56.90
2019-04-16T01:55:27.149Z,56.70
2019-04-16T01:56:28.905Z,56.90
2019-04-16T01:57:28.406Z,57.21
2019-04-16T01:58:27.095Z,56.90
2019-04-16T01:59:27.101Z,56.90
2019-04-16T02:00:27.094Z,57.14
2019-04-16T02:01:27.071Z,57.24
2019-04-16T02:02:27.062Z,57.34
2019-04-16T02:03:27.049Z,57.34
2019-04-16T02:04:27.041Z,57.24
2019-04-16T02:05:27.059Z,56.90
2019-04-16T02:06:27.186Z,57.44
2019-04-16T02:07:27.912Z,57.44
2019-04-16T02:08:28.293Z,57.54
2019-04-16T02:09:26.981Z,57.44
2019-04-16T02:10:26.991Z,57.44
2019-04-16T02:11:26.959Z,57.37
2019-04-16T02:12:26.955Z,57.88
2019-04-16T02:13:26.938Z,57.88
2019-04-16T02:14:26.925Z,57.57
2019-04-16T02:15:26.964Z,57.44
2019-04-16T02:16:26.931Z,57.34
2019-04-16T02:17:27.737Z,57.88
2019-04-16T02:18:29.439Z,57.34
2019-04-16T02:19:26.881Z,57.54
2019-04-16T02:20:26.869Z,57.34
2019-04-16T02:21:26.869Z,57.03
2019-04-16T02:22:26.835Z,57.24
2019-04-16T02:23:26.832Z,57.14
2019-04-16T02:24:26.818Z,57.54
2019-04-16T02:25:26.822Z,57.88
2019-04-16T02:26:26.819Z,57.68
2019-04-16T02:27:27.097Z,57.47
2019-04-16T02:28:28.293Z,57.98
2019-04-16T02:29:29.752Z,57.68
2019-04-16T02:30:26.750Z,58.11
2019-04-16T02:31:26.765Z,58.29
2019-04-16T02:32:26.744Z,58.60
2019-04-16T02:33:26.735Z,58.09
2019-04-16T02:34:26.719Z,58.09
2019-04-16T02:35:26.700Z,57.88
2019-04-16T02:36:26.704Z,58.29
2019-04-16T02:37:26.730Z,58.53
2019-04-16T02:38:26.676Z,58.22
2019-04-16T02:39:46.527Z,58.73
2019-04-16T02:40:26.647Z,58.29
2019-04-16T02:41:26.675Z,57.88
2019-04-16T02:42:30.470Z,57.78
2019-04-16T02:43:26.611Z,57.37
2019-04-16T02:44:26.608Z,57.26
2019-04-16T02:45:26.598Z,57.47
2019-04-16T02:46:30.556Z,57.16
2019-04-16T02:47:26.562Z,57.47
2019-04-16T02:48:26.577Z,57.54
2019-04-16T02:49:26.558Z,57.88
2019-04-16T02:50:30.254Z,57.88
2019-04-16T02:51:26.541Z,58.09
2019-04-16T02:52:26.510Z,57.37
2019-04-16T02:53:26.520Z,58.09
2019-04-16T02:54:32.515Z,58.19
2019-04-16T02:55:26.488Z,58.32
2019-04-16T02:56:26.496Z,58.29
2019-04-16T02:57:27.881Z,58.32
2019-04-16T02:58:26.440Z,58.32
2019-04-16T02:59:26.434Z,58.22
2019-04-16T03:00:26.434Z,58.09
2019-04-16T03:01:26.438Z,58.22
2019-04-16T03:02:26.404Z,58.50
2019-04-16T03:03:26.395Z,58.40
2019-04-16T03:05:35.636Z,58.01
2019-04-16T03:06:36.572Z,58.29
2019-04-16T03:07:36.546Z,58.22
2019-04-16T03:08:36.933Z,58.11
2019-04-16T03:09:39.760Z,58.22
2019-04-16T03:10:36.632Z,58.32
2019-04-16T03:11:36.529Z,58.22
2019-04-16T03:12:36.503Z,58.22
2019-04-16T03:13:36.488Z,58.73
2019-04-16T03:14:36.476Z,58.32
2019-04-16T03:15:36.465Z,59.14
2019-04-16T03:16:38.097Z,58.42
2019-04-16T03:17:36.462Z,58.53
2019-04-16T03:18:36.440Z,58.84
2019-04-16T03:19:38.883Z,58.53
2019-04-16T03:20:36.417Z,58.22
2019-04-16T03:21:36.407Z,58.09
2019-04-16T03:22:36.409Z,58.42
2019-04-16T03:23:37.539Z,58.63
2019-04-16T03:24:37.497Z,58.84
2019-04-16T03:25:36.352Z,58.53
2019-04-16T03:26:36.344Z,58.94
2019-04-16T03:27:36.350Z,58.97
2019-04-16T03:28:36.320Z,58.84
2019-04-16T03:29:36.314Z,58.55
2019-04-16T03:30:42.267Z,58.32
2019-04-16T03:31:36.300Z,59.04
2019-04-16T03:32:36.477Z,58.42
2019-04-16T03:33:36.290Z,58.86
2019-04-16T03:34:36.269Z,58.97
2019-04-16T03:35:36.269Z,59.38
2019-04-16T03:36:36.234Z,58.86
2019-04-16T03:37:36.259Z,58.76
2019-04-16T03:38:37.448Z,58.76
2019-04-16T03:39:36.220Z,59.07
2019-04-16T03:40:36.199Z,58.65
2019-04-16T03:41:36.188Z,58.97
2019-04-16T03:42:36.199Z,59.58
2019-04-16T03:43:36.162Z,59.07
2019-04-16T03:44:37.330Z,59.38
2019-04-16T03:45:37.581Z,59.17
2019-04-16T03:46:36.134Z,59.07
2019-04-16T03:47:36.141Z,59.17
2019-04-16T03:48:36.125Z,59.17
2019-04-16T03:49:36.106Z,59.41
2019-04-16T03:50:36.088Z,59.41
2019-04-16T03:51:36.831Z,59.38
2019-04-16T03:52:37.426Z,59.48
2019-04-16T03:53:36.826Z,60.10
2019-04-16T03:54:36.056Z,59.51
2019-04-16T03:55:36.038Z,59.61
2019-04-16T03:56:36.032Z,59.61
2019-04-16T03:57:36.010Z,59.72
2019-04-16T03:58:38.537Z,59.72
2019-04-16T03:59:36.012Z,60.33
2019-04-16T04:00:35.977Z,60.13
2019-04-16T04:01:35.971Z,60.13
2019-04-16T04:02:35.966Z,60.16
2019-04-16T04:03:35.976Z,60.67
2019-04-16T04:04:35.948Z,60.16
2019-04-16T04:05:35.938Z,60.75
2019-04-16T04:06:36.515Z,60.05
2019-04-16T04:07:35.905Z,60.88
2019-04-16T04:08:35.921Z,60.88
2019-04-16T04:09:35.880Z,59.33
2019-04-16T04:10:37.055Z,60.33
2019-04-16T04:11:40.922Z,59.84
2019-04-16T04:12:35.859Z,59.72
2019-04-16T04:13:35.871Z,59.84
2019-04-16T04:14:35.831Z,60.26
2019-04-16T04:15:35.819Z,60.26
2019-04-16T04:16:35.824Z,60.67
2019-04-16T04:17:38.727Z,61.08
2019-04-16T04:18:35.812Z,61.08
2019-04-16T04:19:35.784Z,61.08
2019-04-16T04:20:35.772Z,60.98
2019-04-16T04:21:35.756Z,60.88
2019-04-16T04:22:35.753Z,61.32
2019-04-16T04:23:35.759Z,61.29
2019-04-16T04:24:35.736Z,61.19
2019-04-16T04:25:36.427Z,61.19
2019-04-16T04:26:41.220Z,60.77
2019-04-16T04:27:35.693Z,61.29
2019-04-16T04:28:35.703Z,61.42
2019-04-16T04:29:35.685Z,61.50
2019-04-16T04:30:35.661Z,60.88
2019-04-16T04:31:35.658Z,61.29
2019-04-16T04:32:36.294Z,61.22
2019-04-16T04:33:40.638Z,61.42
2019-04-16T04:34:35.621Z,61.22
2019-04-16T04:35:35.603Z,61.22
2019-04-16T04:36:35.608Z,61.29
2019-04-16T04:37:35.592Z,61.19
2019-04-16T04:38:37.439Z,61.19
2019-04-16T04:39:35.591Z,61.40
2019-04-16T04:40:44.477Z,61.32
2019-04-16T04:41:35.543Z,61.32
2019-04-16T04:42:35.529Z,61.32
2019-04-16T04:43:35.539Z,61.32
2019-04-16T04:44:36.913Z,61.63
2019-04-16T04:45:37.610Z,61.63
2019-04-16T04:46:35.484Z,61.52
2019-04-16T04:47:35.485Z,61.63
2019-04-16T04:48:35.488Z,61.42
2019-04-16T04:49:35.474Z,61.01
2019-04-16T04:50:36.076Z,61.42
2019-04-16T04:51:36.418Z,61.32
2019-04-16T04:52:35.427Z,61.73
2019-04-16T04:53:35.414Z,61.52
2019-04-16T04:54:35.427Z,61.63
2019-04-16T04:55:35.395Z,61.73
2019-04-16T04:56:35.387Z,61.83
2019-04-16T04:57:35.370Z,61.63
2019-04-16T04:58:35.372Z,61.52
2019-04-16T04:59:36.763Z,61.73
2019-04-16T05:00:37.486Z,61.11
2019-04-16T05:01:35.333Z,61.40
2019-04-16T05:02:35.339Z,61.32
2019-04-16T05:03:35.308Z,61.32
2019-04-16T05:04:35.312Z,61.32
2019-04-16T05:06:44.507Z,61.19
2019-04-16T05:07:45.496Z,61.29
2019-04-16T05:08:45.484Z,61.70
2019-04-16T05:09:45.485Z,61.32
2019-04-16T05:10:58.409Z,61.63
2019-04-16T05:11:48.373Z,61.11
2019-04-16T05:12:45.439Z,61.63
2019-04-16T05:13:45.426Z,61.63
2019-04-16T05:14:45.426Z,61.83
2019-04-16T05:15:45.399Z,61.73
2019-04-16T05:16:45.394Z,61.32
2019-04-16T05:17:46.227Z,61.42
2019-04-16T05:18:45.368Z,61.32
2019-04-16T05:19:45.379Z,61.40
2019-04-16T05:20:47.002Z,61.11
2019-04-16T05:21:49.732Z,61.60
2019-04-16T05:22:45.353Z,61.08
2019-04-16T05:23:45.317Z,61.29
2019-04-16T05:24:45.334Z,61.73
2019-04-16T05:25:45.322Z,61.32
2019-04-16T05:26:45.284Z,61.52
2019-04-16T05:27:45.281Z,60.98
2019-04-16T05:28:45.702Z,61.40
2019-04-16T05:29:48.344Z,61.29
2019-04-16T05:30:45.269Z,61.50
2019-04-16T05:31:45.237Z,61.29
2019-04-16T05:32:45.217Z,61.29
2019-04-16T05:33:45.235Z,61.19
2019-04-16T05:34:45.210Z,60.77
2019-04-16T05:35:45.205Z,60.54
2019-04-16T05:36:47.740Z,61.40
2019-04-16T05:37:45.171Z,60.44
2019-04-16T05:38:45.159Z,60.64
2019-04-16T05:39:45.139Z,61.36
2019-04-16T05:40:45.150Z,60.75
2019-04-16T05:41:45.128Z,60.93
2019-04-16T05:42:45.105Z,60.02
2019-04-16T05:43:45.103Z,59.89
2019-04-16T05:44:45.100Z,60.21
2019-04-16T05:45:45.110Z,59.48
2019-04-16T05:46:46.838Z,59.97
2019-04-16T05:47:48.709Z,59.45
2019-04-16T05:48:45.048Z,59.97
2019-04-16T05:49:45.040Z,59.53
2019-04-16T05:50:45.035Z,59.97
2019-04-16T05:51:45.003Z,59.33
2019-04-16T05:52:44.997Z,59.01
2019-04-16T05:53:45.007Z,58.70
2019-04-16T05:54:45.370Z,58.37
2019-04-16T05:55:49.663Z,58.06
2019-04-16T05:56:44.962Z,58.68
2019-04-16T05:57:44.937Z,57.86
2019-04-16T05:58:44.940Z,57.82
2019-04-16T05:59:44.923Z,57.52
2019-04-16T06:00:44.934Z,57.52
2019-04-16T06:01:45.446Z,57.82
2019-04-16T06:02:49.609Z,57.29
2019-04-16T06:03:44.878Z,57.31
2019-04-16T06:04:44.874Z,57.42
2019-04-16T06:05:44.875Z,56.80
2019-04-16T06:06:44.981Z,56.98
2019-04-16T06:07:44.840Z,56.87
2019-04-16T06:08:44.825Z,56.26
2019-04-16T06:09:45.350Z,56.26
2019-04-16T06:10:49.957Z,56.44
2019-04-16T06:11:44.788Z,56.44
2019-04-16T06:12:44.780Z,56.02
2019-04-16T06:13:45.244Z,56.02
2019-04-16T06:14:46.428Z,55.72
2019-04-16T06:15:44.760Z,55.82
2019-04-16T06:16:44.742Z,56.34
2019-04-16T06:17:44.728Z,56.02
2019-04-16T06:18:44.718Z,55.62
2019-04-16T06:19:46.817Z,55.38
2019-04-16T06:20:53.026Z,55.08
2019-04-16T06:21:44.671Z,55.38
2019-04-16T06:22:44.668Z,55.36
2019-04-16T06:23:44.652Z,55.46
2019-04-16T06:24:44.645Z,54.95
2019-04-16T06:25:44.759Z,54.74
2019-04-16T06:26:47.528Z,55.05
2019-04-16T06:27:44.617Z,54.53
2019-04-16T06:28:44.608Z,54.72
2019-04-16T06:29:47.047Z,54.21
2019-04-16T06:30:44.602Z,54.51
2019-04-16T06:31:44.568Z,53.97
2019-04-16T06:32:44.558Z,52.95
2019-04-16T06:33:44.555Z,53.54
2019-04-16T06:34:44.618Z,53.12
2019-04-16T06:35:44.537Z,53.03
2019-04-16T06:36:44.520Z,52.72
2019-04-16T06:37:45.757Z,52.92
2019-04-16T06:38:44.502Z,52.72
2019-04-16T06:39:44.491Z,52.39
2019-04-16T06:40:44.496Z,52.80
2019-04-16T06:41:47.822Z,52.39
2019-04-16T06:42:44.447Z,51.98
2019-04-16T06:43:44.444Z,52.80
2019-04-16T06:44:44.450Z,52.80
2019-04-16T06:45:44.425Z,52.90
2019-04-16T06:46:45.231Z,52.49
2019-04-16T06:47:44.406Z,52.18
2019-04-16T06:48:45.983Z,52.15
2019-04-16T06:49:44.372Z,51.54
2019-04-16T06:50:44.382Z,51.75
2019-04-16T06:51:44.756Z,51.23
2019-04-16T06:52:46.168Z,52.34
2019-04-16T06:53:44.332Z,51.62
2019-04-16T06:54:45.637Z,50.90
2019-04-16T06:55:44.325Z,51.10
2019-04-16T06:56:44.292Z,52.23
2019-04-16T06:57:44.292Z,50.98
2019-04-16T06:58:51.292Z,51.39
2019-04-16T06:59:44.265Z,50.96
2019-04-16T07:00:44.263Z,50.96
2019-04-16T07:01:44.258Z,51.26
2019-04-16T07:03:01.404Z,51.37
2019-04-16T07:03:44.218Z,51.37
2019-04-16T07:04:44.233Z,50.96
2019-04-16T07:05:44.188Z,50.63
2019-04-16T07:07:53.394Z,50.83
2019-04-16T07:08:54.353Z,50.60
2019-04-16T07:09:57.107Z,50.73
2019-04-16T07:10:54.343Z,50.30
2019-04-16T07:11:55.032Z,50.22
2019-04-16T07:12:54.422Z,50.09
2019-04-16T07:13:54.295Z,50.20
2019-04-16T07:14:54.291Z,49.96
2019-04-16T07:15:56.871Z,50.17
2019-04-16T07:16:54.317Z,49.99
2019-04-16T07:17:54.266Z,49.87
2019-04-16T07:18:54.370Z,50.17
2019-04-16T07:19:54.250Z,50.68
2019-04-16T07:20:54.235Z,48.94
2019-04-16T07:21:54.233Z,48.72
2019-04-16T07:22:54.212Z,49.33
2019-04-16T07:23:58.157Z,49.02
2019-04-16T07:24:54.266Z,48.72
2019-04-16T07:25:54.239Z,48.51
2019-04-16T07:26:56.327Z,49.02
2019-04-16T07:27:57.660Z,48.59
2019-04-16T07:28:58.534Z,47.96
2019-04-16T07:29:54.218Z,48.06
2019-04-16T07:30:54.153Z,47.96
2019-04-16T07:31:54.440Z,48.47
2019-04-16T07:32:54.105Z,47.53
2019-04-16T07:33:54.094Z,46.20
2019-04-16T07:34:54.071Z,46.89
2019-04-16T07:35:54.079Z,47.00
2019-04-16T07:36:56.594Z,47.42
2019-04-16T07:37:54.050Z,47.50
2019-04-16T07:38:54.038Z,45.98
2019-04-16T07:39:54.020Z,45.26
2019-04-16T07:40:54.101Z,45.26
2019-04-16T07:42:07.796Z,44.65
2019-04-16T07:42:57.904Z,44.45
2019-04-16T07:43:54.601Z,44.46
2019-04-16T07:44:55.523Z,44.65
2019-04-16T07:45:53.958Z,45.06
2019-04-16T07:46:53.964Z,44.75
2019-04-16T07:47:53.936Z,44.32
2019-04-16T07:48:54.794Z,44.32
2019-04-16T07:49:55.953Z,44.10
2019-04-16T07:50:53.903Z,43.38
2019-04-16T07:51:53.906Z,42.96
2019-04-16T07:52:54.184Z,42.65
2019-04-16T07:53:53.888Z,42.86
2019-04-16T07:54:53.868Z,42.55
2019-04-16T07:55:53.844Z,42.76
2019-04-16T07:56:53.853Z,42.35
2019-04-16T07:57:53.839Z,42.55
2019-04-16T07:58:53.806Z,42.33
2019-04-16T07:59:53.801Z,42.33
2019-04-16T08:00:53.786Z,41.29
2019-04-16T08:01:53.783Z,40.58
2019-04-16T08:02:54.696Z,40.68
2019-04-16T08:03:57.460Z,40.78
2019-04-16T08:04:54.033Z,40.88
2019-04-16T08:05:53.737Z,41.60
2019-04-16T08:06:53.727Z,40.88
2019-04-16T08:07:53.818Z,40.88
2019-04-16T08:08:53.952Z,41.09
2019-04-16T08:09:53.726Z,40.97
2019-04-16T08:10:53.691Z,41.80
2019-04-16T08:11:53.667Z,41.78
2019-04-16T08:12:56.942Z,40.99
2019-04-16T08:13:53.656Z,41.38
2019-04-16T08:14:53.644Z,40.46
2019-04-16T08:15:56.547Z,40.25
2019-04-16T08:16:53.621Z,40.56
2019-04-16T08:17:53.625Z,40.66
2019-04-16T08:18:53.594Z,41.15
2019-04-16T08:19:55.270Z,41.15
2019-04-16T08:21:01.277Z,39.02
2019-04-16T08:21:53.562Z,40.25
2019-04-16T08:22:53.569Z,40.77
2019-04-16T08:23:53.562Z,41.09
2019-04-16T08:24:57.535Z,41.41
2019-04-16T08:26:02.795Z,41.90
2019-04-16T08:26:53.504Z,41.60
2019-04-16T08:27:54.273Z,41.61
2019-04-16T08:28:53.509Z,40.88
2019-04-16T08:29:53.478Z,40.86
2019-04-16T08:30:53.452Z,40.97
2019-04-16T08:31:53.459Z,40.44
2019-04-16T08:32:53.443Z,40.64
2019-04-16T08:33:53.715Z,40.03
2019-04-16T08:34:53.415Z,39.42
2019-04-16T08:35:53.419Z,39.20
2019-04-16T08:36:53.388Z,38.70
2019-04-16T08:37:53.388Z,39.30
2019-04-16T08:38:53.461Z,39.79
2019-04-16T08:39:53.354Z,39.79
2019-04-16T08:40:53.356Z,39.18
2019-04-16T08:41:53.340Z,39.20
2019-04-16T08:42:56.985Z,39.40
2019-04-16T08:43:53.333Z,39.81
2019-04-16T08:44:53.305Z,39.69
2019-04-16T08:45:53.307Z,39.08
2019-04-16T08:46:53.294Z,39.57
2019-04-16T08:47:53.279Z,38.56
2019-04-16T08:48:54.411Z,38.96
2019-04-16T08:49:54.284Z,38.66
2019-04-16T08:50:57.915Z,38.76
2019-04-16T08:51:53.225Z,38.96
2019-04-16T08:52:53.217Z,38.45
2019-04-16T08:53:53.220Z,38.45
2019-04-16T08:54:54.854Z,38.79
2019-04-16T08:55:53.189Z,38.70
2019-04-16T08:56:53.167Z,38.78
2019-04-16T08:57:53.168Z,38.96
2019-04-16T08:58:56.444Z,38.86
2019-04-16T08:59:53.146Z,39.25
2019-04-16T09:00:53.126Z,37.40
2019-04-16T09:01:54.518Z,38.34
2019-04-16T09:02:57.562Z,38.45
2019-04-16T09:03:53.183Z,39.06
2019-04-16T09:04:53.087Z,38.84
2019-04-16T09:05:53.151Z,38.52
2019-04-16T09:06:53.074Z,38.54
2019-04-16T09:09:12.710Z,39.17
2019-04-16T09:10:16.557Z,39.79
2019-04-16T09:11:04.420Z,38.64
2019-04-16T09:12:07.693Z,39.06
2019-04-16T09:13:04.986Z,38.64
2019-04-16T09:14:03.209Z,38.64
2019-04-16T09:15:03.178Z,38.42
2019-04-16T09:16:03.173Z,38.01
2019-04-16T09:17:03.151Z,38.21
2019-04-16T09:18:03.149Z,38.54
2019-04-16T09:19:03.147Z,38.42
2019-04-16T09:20:05.652Z,38.21
2019-04-16T09:21:03.106Z,37.62
2019-04-16T09:22:03.096Z,38.62
2019-04-16T09:23:03.084Z,38.32
2019-04-16T09:24:08.573Z,38.21
2019-04-16T09:25:03.057Z,38.70
2019-04-16T09:26:12.978Z,37.57
2019-04-16T09:27:03.048Z,38.39
2019-04-16T09:28:03.028Z,37.65
2019-04-16T09:29:08.157Z,37.03
2019-04-16T09:30:03.014Z,36.94
2019-04-16T09:31:02.995Z,37.37
2019-04-16T09:32:02.985Z,37.88
2019-04-16T09:33:02.976Z,37.59
2019-04-16T09:34:06.385Z,38.01
2019-04-16T09:35:09.745Z,37.29
2019-04-16T09:36:02.943Z,36.58
2019-04-16T09:37:02.936Z,36.88
2019-04-16T09:38:02.922Z,37.89
2019-04-16T09:39:03.105Z,37.79
2019-04-16T09:40:15.973Z,37.77
2019-04-16T09:41:02.907Z,37.05
2019-04-16T09:42:02.882Z,36.76
2019-04-16T09:43:15.753Z,36.65
2019-04-16T09:44:02.856Z,37.35
2019-04-16T09:45:05.137Z,36.94
2019-04-16T09:46:10.142Z,36.74
2019-04-16T09:47:05.147Z,36.93
2019-04-16T09:48:03.938Z,36.61
2019-04-16T09:49:04.941Z,36.61
2019-04-16T09:50:02.819Z,36.41
2019-04-16T09:51:02.781Z,36.10
2019-04-16T09:52:03.968Z,35.99
2019-04-16T09:53:02.754Z,36.90
2019-04-16T09:54:02.747Z,36.19
2019-04-16T09:55:02.745Z,36.39
2019-04-16T09:56:02.718Z,36.39
2019-04-16T09:57:02.718Z,36.08
2019-04-16T09:58:06.054Z,36.00
2019-04-16T09:59:02.692Z,36.02
2019-04-16T10:00:02.743Z,36.63
2019-04-16T10:01:02.669Z,36.43
2019-04-16T10:02:02.672Z,35.82
2019-04-16T10:03:02.652Z,37.55
2019-04-16T10:04:02.636Z,37.23
2019-04-16T10:05:02.643Z,35.70
2019-04-16T10:06:05.381Z,36.00
2019-04-16T10:07:02.601Z,36.41
2019-04-16T10:08:02.607Z,35.78
2019-04-16T10:09:02.586Z,36.51
2019-04-16T10:10:02.593Z,37.13
2019-04-16T10:11:05.836Z,36.72
2019-04-16T10:12:04.972Z,36.71
2019-04-16T10:13:02.553Z,35.86
2019-04-16T10:14:02.526Z,35.86
2019-04-16T10:15:02.585Z,36.98
2019-04-16T10:16:02.525Z,36.37
2019-04-16T10:17:02.505Z,36.88
2019-04-16T10:18:02.531Z,35.78
2019-04-16T10:19:07.664Z,36.21
2019-04-16T10:20:02.553Z,36.59
2019-04-16T10:21:02.470Z,36.29
2019-04-16T10:22:02.463Z,36.17
2019-04-16T10:23:02.437Z,35.97
2019-04-16T10:24:02.412Z,35.66
2019-04-16T10:25:02.414Z,36.07
2019-04-16T10:26:02.402Z,36.05
2019-04-16T10:27:04.318Z,35.65
2019-04-16T10:28:04.932Z,35.75
2019-04-16T10:29:02.407Z,36.25
2019-04-16T10:30:02.367Z,36.66
2019-04-16T10:31:02.371Z,36.15
2019-04-16T10:32:02.334Z,35.75
2019-04-16T10:33:02.311Z,37.15
2019-04-16T10:34:02.307Z,35.92
2019-04-16T10:35:02.297Z,35.43
2019-04-16T10:36:04.638Z,36.93
2019-04-16T10:37:02.329Z,35.73
2019-04-16T10:38:02.254Z,36.25
2019-04-16T10:39:02.334Z,36.24
2019-04-16T10:40:04.814Z,36.15
2019-04-16T10:41:02.254Z,36.15
2019-04-16T10:42:02.213Z,36.84
2019-04-16T10:43:02.204Z,35.61
2019-04-16T10:44:02.220Z,35.63
2019-04-16T10:45:02.208Z,35.55
2019-04-16T10:46:02.195Z,35.97
2019-04-16T10:47:02.157Z,35.75
2019-04-16T10:48:02.167Z,35.95
2019-04-16T10:49:02.127Z,36.64
2019-04-16T10:50:02.129Z,36.02
2019-04-16T10:51:02.128Z,35.82
2019-04-16T10:52:02.138Z,36.10
2019-04-16T10:53:02.088Z,35.65
2019-04-16T10:54:02.079Z,36.55
2019-04-16T10:55:02.075Z,36.02
2019-04-16T10:56:02.107Z,36.22
2019-04-16T10:57:02.052Z,35.52
2019-04-16T10:58:02.057Z,35.90
2019-04-16T10:59:02.031Z,34.69
2019-04-16T11:00:02.072Z,35.70
2019-04-16T11:01:02.012Z,35.41
2019-04-16T11:02:01.987Z,35.53
2019-04-16T11:03:02.011Z,35.85
2019-04-16T11:04:04.880Z,35.83
2019-04-16T11:05:03.145Z,36.42
2019-04-16T11:06:01.973Z,36.00
2019-04-16T11:07:01.949Z,36.12
2019-04-16T11:08:04.204Z,36.10
2019-04-16T11:10:11.959Z,36.20
2019-04-16T11:11:12.102Z,36.00
2019-04-16T11:12:12.072Z,35.70
2019-04-16T11:13:12.066Z,36.51
2019-04-16T11:14:12.047Z,35.36
2019-04-16T11:15:12.070Z,35.88
2019-04-16T11:16:12.054Z,36.08
2019-04-16T11:17:12.025Z,34.77
2019-04-16T11:18:12.059Z,35.99
2019-04-16T11:19:11.993Z,35.80
2019-04-16T11:20:12.021Z,35.88
2019-04-16T11:21:12.031Z,35.50
2019-04-16T11:22:12.959Z,35.50
2019-04-16T11:23:11.989Z,35.99
2019-04-16T11:24:12.016Z,35.28
2019-04-16T11:25:11.965Z,35.38
2019-04-16T11:26:11.928Z,35.08
2019-04-16T11:27:11.928Z,35.38
2019-04-16T11:28:14.162Z,36.07
2019-04-16T11:29:12.155Z,35.85
2019-04-16T11:30:11.894Z,34.54
2019-04-16T11:31:11.866Z,34.83
2019-04-16T11:32:11.874Z,34.54
2019-04-16T11:33:11.943Z,33.22
2019-04-16T11:34:12.080Z,33.64
2019-04-16T11:35:13.024Z,33.35
2019-04-16T11:36:19.479Z,33.45
2019-04-16T11:37:11.847Z,33.25
2019-04-16T11:38:11.792Z,34.69
2019-04-16T11:39:11.777Z,34.97
2019-04-16T11:40:11.771Z,34.59
2019-04-16T11:41:11.747Z,36.10
2019-04-16T11:42:11.764Z,35.28
2019-04-16T11:43:11.761Z,35.26
2019-04-16T11:44:15.659Z,34.66
2019-04-16T11:45:11.905Z,34.54
2019-04-16T11:46:11.758Z,33.65
2019-04-16T11:47:11.711Z,34.67
2019-04-16T11:48:11.666Z,34.44
2019-04-16T11:49:11.717Z,33.55
2019-04-16T11:50:11.704Z,34.07
2019-04-16T11:51:11.674Z,34.79
2019-04-16T11:52:11.686Z,34.57
2019-04-16T11:53:11.698Z,34.97
2019-04-16T11:54:12.353Z,35.88
2019-04-16T11:55:11.599Z,35.48
2019-04-16T11:56:11.608Z,35.08
2019-04-16T11:57:13.310Z,35.48
2019-04-16T11:58:11.568Z,35.68
2019-04-16T11:59:11.561Z,36.07
2019-04-16T12:00:11.595Z,34.34
2019-04-16T12:01:11.530Z,35.16
2019-04-16T12:02:11.545Z,34.76
2019-04-16T12:03:11.524Z,34.97
2019-04-16T12:04:15.651Z,35.26
2019-04-16T12:05:11.509Z,35.26
2019-04-16T12:06:26.531Z,35.35
2019-04-16T12:07:11.661Z,35.77
2019-04-16T12:08:11.630Z,36.17
2019-04-16T12:09:11.468Z,35.65
2019-04-16T12:10:11.462Z,35.65
2019-04-16T12:11:11.539Z,36.24
2019-04-16T12:12:11.411Z,35.45
2019-04-16T12:13:11.448Z,35.58
2019-04-16T12:14:11.400Z,34.94
2019-04-16T12:15:11.621Z,33.64
2019-04-16T12:16:11.367Z,34.76
2019-04-16T12:17:11.372Z,34.14
2019-04-16T12:18:11.367Z,34.83
2019-04-16T12:19:11.352Z,33.10
2019-04-16T12:20:11.410Z,33.70
2019-04-16T12:21:11.347Z,33.31
2019-04-16T12:22:11.309Z,33.62
2019-04-16T12:23:11.323Z,33.10
2019-04-16T12:24:11.272Z,34.42
2019-04-16T12:25:11.259Z,34.34
2019-04-16T12:26:11.299Z,34.72
2019-04-16T12:27:11.318Z,35.11
2019-04-16T12:28:12.478Z,34.69
2019-04-16T12:29:11.252Z,33.08
2019-04-16T12:30:11.254Z,33.28
2019-04-16T12:31:11.245Z,33.18
2019-04-16T12:32:11.429Z,35.11
2019-04-16T12:33:14.029Z,33.18
2019-04-16T12:34:11.165Z,34.71
2019-04-16T12:35:11.164Z,33.10
2019-04-16T12:36:14.068Z,34.72
2019-04-16T12:37:11.179Z,34.00
2019-04-16T12:38:13.136Z,33.20
2019-04-16T12:39:11.275Z,33.18
2019-04-16T12:40:11.137Z,33.59
2019-04-16T12:41:11.079Z,33.87
2019-04-16T12:42:11.076Z,32.56
2019-04-16T12:43:14.659Z,33.69
2019-04-16T12:44:11.054Z,33.08
2019-04-16T12:45:11.086Z,34.11
2019-04-16T12:46:11.043Z,34.52
2019-04-16T12:47:11.031Z,34.92
2019-04-16T12:48:11.169Z,34.32
2019-04-16T12:49:11.006Z,34.72
2019-04-16T12:50:10.989Z,34.63
2019-04-16T12:51:11.168Z,35.33
2019-04-16T12:52:15.855Z,35.33
2019-04-16T12:53:11.007Z,34.12
2019-04-16T12:54:10.955Z,34.74
2019-04-16T12:55:11.082Z,35.36
2019-04-16T12:56:11.163Z,35.55
2019-04-16T12:57:14.940Z,34.91
2019-04-16T12:58:10.907Z,35.19
2019-04-16T12:59:10.907Z,34.20